Time;durP1;ratioP1;P1;durP2;ratioP2;P2;SDS_P1;SDS_P2;PMS_P1;PMS_P2;Temp;Humidity;BMP_temperature;BMP_pressure;BME280_temperature;BME280_humidity;BME280_pressure;Samples;Min_cycle;Max_cycle;Signal;HPM_P1;HPM_P2
2024/03/09 00:00:44;;;;;;;23.60;10.07;;;;;;;;;;5076565;28;20413;-73
2024/03/09 00:03:11;;;;;;;19.67;9.33;;;;;;;;;;5092287;28;20035;-74
2024/03/09 00:05:39;;;;;;;19.33;9.07;;;;;;;;;;5075917;28;20040;-74
2024/03/09 00:08:07;;;;;;;19.70;9.33;;;;;;;;;;5075089;28;20052;-72
2024/03/09 00:10:33;;;;;;;20.77;9.57;;;;;;;;;;5076239;28;20112;-73
2024/03/09 00:13:00;;;;;;;24.50;10.20;;;;;;;;;;5075725;28;20101;-75
2024/03/09 00:15:28;;;;;;;24.87;9.93;;;;;;;;;;5058289;28;20040;-73
2024/03/09 00:17:55;;;;;;;21.53;10.23;;;;;;;;;;5057503;28;20024;-73
2024/03/09 00:20:34;;;;;;;22.17;9.20;;;;;;;;;;5058345;28;20070;-74
2024/03/09 00:23:01;;;;;;;18.83;9.73;;;;;;;;;;5057535;28;20122;-73
2024/03/09 00:25:28;;;;;;;20.70;10.83;;;;;;;;;;5058423;28;20067;-72
2024/03/09 00:27:56;;;;;;;22.87;9.17;;;;;;;;;;5076023;28;20107;-73
2024/03/09 00:30:24;;;;;;;20.43;9.50;;;;;;;;;;5059297;28;20519;-73
2024/03/09 00:32:53;;;;;;;21.43;9.70;;;;;;;;;;5076138;28;20029;-73
2024/03/09 00:35:24;;;;;;;18.67;8.93;;;;;;;;;;5074755;28;20108;-72
2024/03/09 00:37:50;;;;;;;18.63;9.63;;;;;;;;;;5056933;28;20033;-73
2024/03/09 00:40:17;;;;;;;17.90;8.53;;;;;;;;;;5075252;28;20310;-72
2024/03/09 00:42:45;;;;;;;22.33;10.13;;;;;;;;;;5065454;28;20020;-72
2024/03/09 00:45:13;;;;;;;22.03;9.80;;;;;;;;;;5054946;28;20323;-74
2024/03/09 00:47:40;;;;;;;19.20;9.00;;;;;;;;;;5036995;28;20085;-72
2024/03/09 00:50:09;;;;;;;24.10;9.83;;;;;;;;;;5035632;28;20036;-72
2024/03/09 00:52:36;;;;;;;20.23;9.07;;;;;;;;;;5051974;28;20423;-72
2024/03/09 00:55:02;;;;;;;23.03;9.07;;;;;;;;;;5082671;28;20032;-75
2024/03/09 00:57:28;;;;;;;22.13;9.93;;;;;;;;;;5075814;28;20389;-74
2024/03/09 00:59:54;;;;;;;18.27;9.37;;;;;;;;;;5075718;28;20025;-74
2024/03/09 01:02:21;;;;;;;20.40;10.40;;;;;;;;;;5057437;28;20024;-75
2024/03/09 01:04:48;;;;;;;20.87;9.07;;;;;;;;;;5057019;28;20035;-74
2024/03/09 01:07:15;;;;;;;23.17;10.43;;;;;;;;;;5074715;28;20029;-75
2024/03/09 01:09:47;;;;;;;21.67;9.47;;;;;;;;;;5056610;28;20516;-74
2024/03/09 01:12:20;;;;;;;21.63;10.60;;;;;;;;;;5061014;28;20082;-73
2024/03/09 01:14:48;;;;;;;;;;;;;;;;;;5079395;28;20691;-73
2024/03/09 01:17:20;;;;;;;20.23;9.23;;;;;;;;;;5078197;28;20284;-72
2024/03/09 01:19:46;;;;;;;21.20;8.77;;;;;;;;;;5077673;28;20036;-72
2024/03/09 01:22:13;;;;;;;19.60;9.20;;;;;;;;;;5060727;28;20021;-71
2024/03/09 01:24:39;;;;;;;21.27;9.93;;;;;;;;;;5060078;28;20500;-73
2024/03/09 01:27:06;;;;;;;22.93;9.53;;;;;;;;;;5080456;28;20047;-72
2024/03/09 01:29:32;;;;;;;21.10;9.30;;;;;;;;;;5059282;28;20094;-74
2024/03/09 01:32:01;;;;;;;26.83;10.47;;;;;;;;;;5077488;28;20021;-72
2024/03/09 01:34:27;;;;;;;25.07;10.60;;;;;;;;;;5077781;28;20037;-73
2024/03/09 01:36:53;;;;;;;17.47;8.87;;;;;;;;;;5078471;28;20129;-74
2024/03/09 01:39:21;;;;;;;26.07;10.17;;;;;;;;;;5080053;28;20055;-73
2024/03/09 01:41:50;;;;;;;20.27;8.97;;;;;;;;;;5059383;28;20024;-76
2024/03/09 01:44:16;;;;;;;20.63;8.70;;;;;;;;;;5040968;28;20120;-72
2024/03/09 01:46:43;;;;;;;21.10;10.23;;;;;;;;;;5040694;28;20059;-72
2024/03/09 01:49:11;;;;;;;20.33;9.63;;;;;;;;;;5059507;28;20041;-71
2024/03/09 01:51:37;;;;;;;24.80;9.73;;;;;;;;;;5042809;28;20067;-72
2024/03/09 01:54:10;;;;;;;20.77;9.43;;;;;;;;;;5083641;28;20054;-74
2024/03/09 01:56:38;;;;;;;19.70;9.20;;;;;;;;;;5085542;28;20097;-71
2024/03/09 01:59:07;;;;;;;25.07;10.27;;;;;;;;;;5096425;28;20051;-72
2024/03/09 02:01:36;;;;;;;18.63;9.40;;;;;;;;;;5075852;28;20032;-73
2024/03/09 02:04:04;;;;;;;23.00;9.43;;;;;;;;;;5039311;28;20025;-73
2024/03/09 02:06:31;;;;;;;20.13;9.33;;;;;;;;;;5055276;28;20053;-72
2024/03/09 02:08:58;;;;;;;20.53;9.77;;;;;;;;;;5057048;28;20036;-73
2024/03/09 02:11:29;;;;;;;21.73;9.03;;;;;;;;;;5058183;28;20032;-73
2024/03/09 02:13:55;;;;;;;23.57;10.37;;;;;;;;;;5039027;28;20465;-74
2024/03/09 02:16:21;;;;;;;21.07;9.77;;;;;;;;;;5051600;28;20107;-72
2024/03/09 02:18:48;;;;;;;21.90;9.87;;;;;;;;;;5054991;28;20025;-73
2024/03/09 02:21:18;;;;;;;21.73;10.03;;;;;;;;;;5056364;28;20048;-72
2024/03/09 02:23:47;;;;;;;20.57;9.60;;;;;;;;;;5038022;28;20401;-72
2024/03/09 02:26:16;;;;;;;20.30;10.70;;;;;;;;;;5056762;28;20029;-74
2024/03/09 02:28:55;;;;;;;22.63;10.10;;;;;;;;;;5071094;28;20489;-72
2024/03/09 02:31:25;;;;;;;22.77;10.47;;;;;;;;;;5055689;28;20618;-73
2024/03/09 02:33:55;;;;;;;19.17;9.37;;;;;;;;;;5055782;28;20024;-75
2024/03/09 02:36:28;;;;;;;24.63;10.00;;;;;;;;;;5054040;28;20083;-74
2024/03/09 02:38:55;;;;;;;21.30;10.30;;;;;;;;;;5071158;28;20056;-74
2024/03/09 02:41:25;;;;;;;20.63;10.17;;;;;;;;;;5054923;28;20029;-74
2024/03/09 02:43:56;;;;;;;19.73;9.17;;;;;;;;;;5037126;28;20464;-73
2024/03/09 02:46:25;;;;;;;19.03;10.00;;;;;;;;;;5039746;28;20416;-73
2024/03/09 02:48:55;;;;;;;22.43;10.70;;;;;;;;;;5058088;28;20313;-74
2024/03/09 02:51:22;;;;;;;20.70;10.53;;;;;;;;;;5039194;28;20036;-71
2024/03/09 02:53:51;;;;;;;23.47;10.57;;;;;;;;;;5059180;28;20025;-73
2024/03/09 02:56:19;;;;;;;22.90;10.40;;;;;;;;;;5075337;28;20036;-72
2024/03/09 02:58:45;;;;;;;22.17;9.03;;;;;;;;;;5056573;28;20101;-72
2024/03/09 03:01:11;;;;;;;22.67;10.40;;;;;;;;;;5075772;28;20021;-74
2024/03/09 03:04:01;;;;;;;20.00;9.27;;;;;;;;;;5077462;28;20048;-74
2024/03/09 03:06:32;;;;;;;22.03;10.37;;;;;;;;;;5076268;28;20052;-75
2024/03/09 03:09:19;;;;;;;21.73;10.30;;;;;;;;;;5058154;28;20060;-73
2024/03/09 03:11:45;;;;;;;22.03;9.83;;;;;;;;;;5091039;28;20491;-73
2024/03/09 03:14:15;;;;;;;22.07;10.77;;;;;;;;;;5058074;28;20029;-73
2024/03/09 03:16:41;;;;;;;22.97;9.67;;;;;;;;;;5058830;28;20032;-74
2024/03/09 03:19:09;;;;;;;23.03;10.73;;;;;;;;;;5077302;28;20435;-73
2024/03/09 03:21:36;;;;;;;22.73;11.50;;;;;;;;;;5077457;28;20028;-76
2024/03/09 03:24:02;;;;;;;24.27;10.27;;;;;;;;;;5079271;28;20036;-71
2024/03/09 03:26:30;;;;;;;21.70;9.37;;;;;;;;;;5081962;28;20080;-73
2024/03/09 03:28:56;;;;;;;22.90;9.50;;;;;;;;;;5062111;28;20028;-74
2024/03/09 03:31:22;;;;;;;20.93;9.50;;;;;;;;;;5079150;28;20071;-75
2024/03/09 03:33:49;;;;;;;23.07;10.40;;;;;;;;;;5078949;28;20024;-73
2024/03/09 03:36:20;;;;;;;20.87;9.67;;;;;;;;;;5076941;28;20566;-73
2024/03/09 03:38:47;;;;;;;23.33;10.37;;;;;;;;;;5075267;28;20029;-74
2024/03/09 03:41:23;;;;;;;23.13;10.50;;;;;;;;;;5056827;28;20029;-73
2024/03/09 03:43:48;;;;;;;25.13;10.47;;;;;;;;;;5057367;28;20025;-72
2024/03/09 03:46:16;;;;;;;24.57;10.33;;;;;;;;;;5074446;28;20035;-74
2024/03/09 03:48:44;;;;;;;19.97;10.33;;;;;;;;;;5058600;28;20051;-73
2024/03/09 03:51:12;;;;;;;21.30;10.03;;;;;;;;;;5058436;28;20051;-73
2024/03/09 03:53:39;;;;;;;17.73;9.77;;;;;;;;;;5057506;28;20029;-73
2024/03/09 03:56:07;;;;;;;25.13;11.17;;;;;;;;;;5058224;28;20056;-72
2024/03/09 03:58:34;;;;;;;23.70;10.50;;;;;;;;;;5058527;28;20023;-73
2024/03/09 04:00:59;;;;;;;22.37;8.80;;;;;;;;;;5057749;28;20024;-72
2024/03/09 04:03:31;;;;;;;17.80;9.37;;;;;;;;;;5074986;28;20024;-73
2024/03/09 04:05:59;;;;;;;21.40;10.13;;;;;;;;;;5074910;28;20556;-73
2024/03/09 04:08:25;;;;;;;24.43;10.13;;;;;;;;;;5056121;28;20043;-74
2024/03/09 04:10:51;;;;;;;24.43;9.90;;;;;;;;;;5055977;28;20039;-72
2024/03/09 04:13:20;;;;;;;24.80;10.07;;;;;;;;;;5060767;28;20028;-73
2024/03/09 04:15:45;;;;;;;23.97;10.50;;;;;;;;;;5079466;28;20025;-73
2024/03/09 04:18:15;;;;;;;19.87;9.30;;;;;;;;;;5062183;28;20490;-73
2024/03/09 04:20:43;;;;;;;19.47;9.43;;;;;;;;;;5077026;28;20098;-76
2024/03/09 04:23:15;;;;;;;22.03;10.30;;;;;;;;;;5078498;28;20047;-73
2024/03/09 04:25:50;;;;;;;22.57;10.77;;;;;;;;;;5080008;28;20054;-73
2024/03/09 04:28:20;;;;;;;22.87;10.37;;;;;;;;;;5061722;28;20025;-72
2024/03/09 04:30:46;;;;;;;22.23;10.13;;;;;;;;;;5076810;28;20111;-72
2024/03/09 04:33:12;;;;;;;19.47;8.73;;;;;;;;;;5056296;28;20031;-73
2024/03/09 04:35:41;;;;;;;40.40;17.47;;;;;;;;;;5057307;28;20136;-72
2024/03/09 04:38:07;;;;;;;19.40;10.53;;;;;;;;;;5091497;28;20028;-74
2024/03/09 04:40:36;;;;;;;22.13;10.50;;;;;;;;;;5076378;28;20031;-73
2024/03/09 04:43:07;;;;;;;19.40;9.27;;;;;;;;;;5076996;28;20039;-72
2024/03/09 04:45:33;;;;;;;23.00;9.60;;;;;;;;;;5078520;28;20021;-72
2024/03/09 04:47:59;;;;;;;26.50;10.33;;;;;;;;;;5095576;28;20035;-74
2024/03/09 04:50:28;;;;;;;20.83;10.10;;;;;;;;;;5061690;28;20028;-71
2024/03/09 04:52:55;;;;;;;29.20;10.90;;;;;;;;;;5079783;28;20024;-72
2024/03/09 04:55:27;;;;;;;21.90;9.50;;;;;;;;;;5079110;28;20024;-72
2024/03/09 04:57:56;;;;;;;24.55;10.07;;;;;;;;;;5094891;28;20048;-72
2024/03/09 05:00:24;;;;;;;21.73;10.63;;;;;;;;;;5079206;28;20020;-74
2024/03/09 05:02:51;;;;;;;20.77;9.87;;;;;;;;;;5077292;28;20480;-72
2024/03/09 05:05:18;;;;;;;19.53;10.07;;;;;;;;;;5078053;28;20056;-71
2024/03/09 05:07:49;;;;;;;20.63;10.27;;;;;;;;;;5093256;28;20121;-70
2024/03/09 05:10:17;;;;;;;26.27;10.17;;;;;;;;;;5059202;28;20720;-73
2024/03/09 05:12:53;;;;;;;20.17;10.30;;;;;;;;;;5059568;28;20055;-73
2024/03/09 05:15:24;;;;;;;21.70;9.93;;;;;;;;;;5059203;28;20473;-70
2024/03/09 05:17:51;;;;;;;23.27;10.68;;;;;;;;;;5078306;28;20384;-73
2024/03/09 05:20:22;;;;;;;24.40;9.73;;;;;;;;;;5076927;28;20028;-73
2024/03/09 05:22:48;;;;;;;25.30;10.57;;;;;;;;;;5077841;28;20024;-73
2024/03/09 05:25:15;;;;;;;22.70;9.57;;;;;;;;;;5059252;28;20039;-73
2024/03/09 05:27:43;;;;;;;23.47;10.37;;;;;;;;;;5078130;28;20039;-72
2024/03/09 05:30:18;;;;;;;26.00;11.53;;;;;;;;;;5060033;28;20032;-73
2024/03/09 05:32:54;;;;;;;25.77;11.03;;;;;;;;;;5058759;28;20028;-73
2024/03/09 05:35:28;;;;;;;19.83;9.77;;;;;;;;;;5059344;28;20028;-74
2024/03/09 05:37:55;;;;;;;22.20;10.30;;;;;;;;;;5060432;28;20548;-73
2024/03/09 05:40:21;;;;;;;26.70;11.33;;;;;;;;;;5077776;28;20028;-72
2024/03/09 05:42:49;;;;;;;24.60;11.23;;;;;;;;;;5084082;28;20035;-72
2024/03/09 05:45:20;;;;;;;26.30;12.43;;;;;;;;;;5039712;28;20042;-72
2024/03/09 05:47:56;;;;;;;26.88;11.82;;;;;;;;;;5056303;28;20036;-72
2024/03/09 05:50:23;;;;;;;29.17;11.63;;;;;;;;;;5056183;28;20065;-73
2024/03/09 05:52:52;;;;;;;26.73;12.23;;;;;;;;;;5059420;28;20029;-72
2024/03/09 05:55:19;;;;;;;26.07;11.93;;;;;;;;;;5075795;28;20024;-72
2024/03/09 05:57:49;;;;;;;25.40;12.07;;;;;;;;;;5094664;28;20024;-73
2024/03/09 06:00:24;;;;;;;31.07;11.17;;;;;;;;;;5082339;28;20024;-72
2024/03/09 06:02:51;;;;;;;27.17;12.17;;;;;;;;;;5084012;28;20036;-73
2024/03/09 06:05:17;;;;;;;24.43;12.27;;;;;;;;;;5061380;28;20060;-72
2024/03/09 06:07:46;;;;;;;23.37;11.57;;;;;;;;;;5059961;28;20032;-73
2024/03/09 06:10:14;;;;;;;24.70;11.20;;;;;;;;;;5079057;28;20024;-72
2024/03/09 06:12:44;;;;;;;35.17;12.07;;;;;;;;;;5080708;28;20035;-73
2024/03/09 06:15:14;;;;;;;24.43;10.90;;;;;;;;;;5061569;28;20039;-72
2024/03/09 06:17:42;;;;;;;21.80;11.67;;;;;;;;;;5060367;28;20029;-74
2024/03/09 06:20:08;;;;;;;28.20;11.47;;;;;;;;;;5060209;28;20040;-71
2024/03/09 06:22:34;;;;;;;21.97;10.50;;;;;;;;;;5078384;28;20033;-74
2024/03/09 06:25:00;;;;;;;23.23;10.87;;;;;;;;;;5076336;28;20393;-74
2024/03/09 06:27:27;;;;;;;20.27;10.67;;;;;;;;;;5077174;28;20039;-72
2024/03/09 06:29:56;;;;;;;22.50;10.30;;;;;;;;;;5059557;28;20024;-74
2024/03/09 06:32:28;;;;;;;23.37;10.17;;;;;;;;;;5076304;28;20044;-75
2024/03/09 06:34:54;;;;;;;24.07;10.77;;;;;;;;;;5077485;28;20031;-73
2024/03/09 06:37:22;;;;;;;20.90;10.00;;;;;;;;;;5058163;28;20024;-74
2024/03/09 06:39:48;;;;;;;26.43;10.87;;;;;;;;;;5077323;28;20063;-72
2024/03/09 06:42:14;;;;;;;18.73;10.53;;;;;;;;;;5071451;28;20017;-73
2024/03/09 06:44:40;;;;;;;25.23;10.63;;;;;;;;;;5056524;28;20396;-75
2024/03/09 06:47:06;;;;;;;20.77;10.70;;;;;;;;;;5056344;28;20104;-74
2024/03/09 06:49:38;;;;;;;20.33;11.07;;;;;;;;;;5037781;28;20529;-73
2024/03/09 06:52:05;;;;;;;21.17;10.53;;;;;;;;;;5038435;28;20063;-73
2024/03/09 06:54:31;;;;;;;21.75;11.20;;;;;;;;;;5062556;28;20059;-73
2024/03/09 06:56:57;;;;;;;21.60;10.10;;;;;;;;;;5058096;28;20047;-74
2024/03/09 06:59:23;;;;;;;21.20;10.40;;;;;;;;;;5057605;28;20033;-72
2024/03/09 07:01:57;;;;;;;22.57;9.70;;;;;;;;;;5055954;28;20396;-75
2024/03/09 07:04:31;;;;;;;20.87;10.17;;;;;;;;;;5013324;28;20043;-74
2024/03/09 07:06:57;;;;;;;22.50;10.80;;;;;;;;;;5009521;28;20057;-73
2024/03/09 07:09:23;;;;;;;23.70;11.03;;;;;;;;;;5009426;28;20550;-72
2024/03/09 07:11:52;;;;;;;23.07;10.40;;;;;;;;;;5010560;28;20212;-74
2024/03/09 07:14:24;;;;;;;22.40;9.67;;;;;;;;;;5010365;28;20444;-73
2024/03/09 07:16:51;;;;;;;17.33;8.53;;;;;;;;;;5009452;28;20128;-73
2024/03/09 07:19:17;;;;;;;19.27;10.03;;;;;;;;;;5008933;28;20116;-74
2024/03/09 07:21:42;;;;;;;19.47;9.13;;;;;;;;;;5010445;28;20036;-74
2024/03/09 07:24:09;;;;;;;19.57;9.30;;;;;;;;;;5010444;28;20096;-73
2024/03/09 07:26:39;;;;;;;24.13;10.15;;;;;;;;;;5011030;28;20405;-73
2024/03/09 07:29:05;;;;;;;23.03;9.73;;;;;;;;;;5010595;28;20517;-73
2024/03/09 07:31:31;;;;;;;19.97;9.70;;;;;;;;;;5008797;28;20112;-73
2024/03/09 07:33:56;;;;;;;25.60;11.10;;;;;;;;;;5008813;28;20129;-72
2024/03/09 07:36:23;;;;;;;20.63;10.17;;;;;;;;;;5010062;28;20091;-74
2024/03/09 07:38:49;;;;;;;20.43;9.80;;;;;;;;;;5041794;28;20047;-73
2024/03/09 07:41:21;;;;;;;22.53;10.40;;;;;;;;;;5009888;28;20025;-71
2024/03/09 07:43:47;;;;;;;21.07;10.30;;;;;;;;;;5026201;28;20540;-74
2024/03/09 07:46:13;;;;;;;28.23;10.87;;;;;;;;;;5029709;28;20025;-74
2024/03/09 07:48:40;;;;;;;20.58;9.27;;;;;;;;;;5027949;28;20091;-72
2024/03/09 07:51:08;;;;;;;20.70;10.70;;;;;;;;;;5028548;28;20276;-73
2024/03/09 07:53:34;;;;;;;19.50;9.77;;;;;;;;;;5028553;28;20025;-74
2024/03/09 07:56:00;;;;;;;21.33;10.83;;;;;;;;;;5049511;28;20036;-73
2024/03/09 07:58:25;;;;;;;25.48;10.43;;;;;;;;;;5049471;28;20029;-74
2024/03/09 08:00:51;;;;;;;19.17;10.07;;;;;;;;;;5048052;28;20060;-74
2024/03/09 08:03:17;;;;;;;20.30;9.57;;;;;;;;;;5049533;28;20032;-73
2024/03/09 08:05:42;;;;;;;21.83;10.82;;;;;;;;;;5058451;28;20052;-74
2024/03/09 08:08:11;;;;;;;19.92;10.20;;;;;;;;;;5069793;28;20037;-72
2024/03/09 08:10:47;;;;;;;19.92;9.35;;;;;;;;;;5067746;28;20028;-74
2024/03/09 08:13:13;;;;;;;20.60;9.75;;;;;;;;;;5051366;28;20020;-74
2024/03/09 08:15:39;;;;;;;20.27;9.70;;;;;;;;;;5050962;28;20066;-72
2024/03/09 08:18:07;;;;;;;20.83;10.48;;;;;;;;;;5067879;28;20056;-74
2024/03/09 08:20:34;;;;;;;17.70;9.52;;;;;;;;;;5068776;28;20108;-72
2024/03/09 08:23:01;;;;;;;18.98;9.82;;;;;;;;;;5051340;28;20063;-72
2024/03/09 08:25:27;;;;;;;25.02;13.10;;;;;;;;;;5069615;28;20269;-73
2024/03/09 08:27:54;;;;;;;20.52;10.10;;;;;;;;;;5069261;28;20028;-74
2024/03/09 08:30:20;;;;;;;20.02;9.77;;;;;;;;;;5051017;28;20059;-74
2024/03/09 08:32:47;;;;;;;19.02;9.07;;;;;;;;;;5051280;28;20447;-74
2024/03/09 08:35:15;;;;;;;17.98;8.88;;;;;;;;;;5069075;28;20028;-74
2024/03/09 08:37:42;;;;;;;20.83;9.10;;;;;;;;;;5068802;28;20037;-73
2024/03/09 08:40:09;;;;;;;21.08;10.20;;;;;;;;;;5084588;28;20028;-73
2024/03/09 08:42:34;;;;;;;25.35;10.65;;;;;;;;;;5076370;28;20079;-73
2024/03/09 08:45:01;;;;;;;19.80;10.63;;;;;;;;;;5049183;28;20037;-73
2024/03/09 08:47:28;;;;;;;18.67;8.93;;;;;;;;;;5049236;28;20552;-74
2024/03/09 08:49:54;;;;;;;22.85;10.80;;;;;;;;;;5049328;28;20025;-74
2024/03/09 08:52:20;;;;;;;20.52;9.52;;;;;;;;;;5031418;28;20225;-73
2024/03/09 08:54:55;;;;;;;20.17;9.85;;;;;;;;;;5061913;28;20036;-71
2024/03/09 08:57:23;;;;;;;18.67;9.40;;;;;;;;;;5054549;28;20476;-70
2024/03/09 08:59:52;;;;;;;19.17;8.60;;;;;;;;;;5073285;28;20016;-73
2024/03/09 09:02:22;;;;;;;20.17;10.27;;;;;;;;;;5087384;28;20082;-73
2024/03/09 09:04:48;;;;;;;19.30;9.38;;;;;;;;;;5050730;28;20431;-73
2024/03/09 09:07:15;;;;;;;20.55;10.25;;;;;;;;;;5050688;28;20043;-72
2024/03/09 09:09:42;;;;;;;21.88;10.52;;;;;;;;;;5050788;28;20028;-73
2024/03/09 09:12:08;;;;;;;17.85;9.20;;;;;;;;;;5050972;28;20123;-74
2024/03/09 09:14:34;;;;;;;20.80;10.13;;;;;;;;;;5068842;28;20081;-73
2024/03/09 09:17:00;;;;;;;20.60;10.38;;;;;;;;;;5051041;28;20028;-74
2024/03/09 09:19:26;;;;;;;18.58;10.00;;;;;;;;;;5068903;28;20104;-73
2024/03/09 09:21:51;;;;;;;19.90;10.10;;;;;;;;;;5050649;28;20028;-73
2024/03/09 09:24:17;;;;;;;21.60;10.13;;;;;;;;;;5068570;28;20028;-73
2024/03/09 09:26:43;;;;;;;20.95;8.88;;;;;;;;;;5084057;28;20439;-74
2024/03/09 09:29:11;;;;;;;24.23;9.75;;;;;;;;;;5068777;28;20104;-74
2024/03/09 09:31:41;;;;;;;18.90;10.18;;;;;;;;;;5085569;28;20040;-72
2024/03/09 09:34:10;;;;;;;18.33;9.38;;;;;;;;;;5087943;28;20443;-74
2024/03/09 09:36:39;;;;;;;21.23;10.02;;;;;;;;;;5054224;28;20119;-73
2024/03/09 09:39:05;;;;;;;23.73;10.40;;;;;;;;;;5071878;28;20032;-72
2024/03/09 09:41:31;;;;;;;19.58;9.20;;;;;;;;;;5072719;28;20022;-73
2024/03/09 09:43:57;;;;;;;21.63;10.88;;;;;;;;;;5071945;28;20028;-73
2024/03/09 09:46:25;;;;;;;24.17;9.55;;;;;;;;;;5054102;28;20037;-73
2024/03/09 09:48:52;;;;;;;23.13;9.95;;;;;;;;;;5071816;28;20050;-73
2024/03/09 09:51:24;;;;;;;19.55;9.90;;;;;;;;;;5053608;28;20033;-73
2024/03/09 09:53:52;;;;;;;;;;;;;;;;;;5072414;28;20094;-73
2024/03/09 09:56:20;;;;;;;21.50;9.25;;;;;;;;;;5072099;28;19908;-75
2024/03/09 09:58:47;;;;;;;17.35;9.20;;;;;;;;;;5087317;28;20058;-73
2024/03/09 10:01:16;;;;;;;21.10;10.77;;;;;;;;;;5087547;28;20024;-72
2024/03/09 10:03:45;;;;;;;19.40;9.55;;;;;;;;;;5087293;28;20028;-72
2024/03/09 10:06:23;;;;;;;19.95;9.52;;;;;;;;;;5072193;28;20451;-70
2024/03/09 10:08:50;;;;;;;21.55;11.02;;;;;;;;;;5075400;28;20021;-73
2024/03/09 10:11:17;;;;;;;20.90;9.88;;;;;;;;;;5061420;28;20024;-74
2024/03/09 10:13:46;;;;;;;16.30;9.00;;;;;;;;;;5076425;28;20525;-72
2024/03/09 10:16:16;;;;;;;19.27;9.48;;;;;;;;;;5071735;28;20120;-74
2024/03/09 10:18:44;;;;;;;20.38;10.30;;;;;;;;;;5071361;28;20237;-72
2024/03/09 10:21:11;;;;;;;18.55;8.32;;;;;;;;;;5071515;28;20366;-74
2024/03/09 10:23:37;;;;;;;18.27;9.88;;;;;;;;;;5053168;28;20074;-73
2024/03/09 10:26:06;;;;;;;16.80;9.43;;;;;;;;;;5071893;28;20063;-73
2024/03/09 10:28:37;;;;;;;16.92;8.88;;;;;;;;;;5053560;28;20028;-74
2024/03/09 10:31:03;;;;;;;15.93;9.10;;;;;;;;;;5053057;28;20514;-73
2024/03/09 10:33:32;;;;;;;17.00;9.13;;;;;;;;;;5052925;28;20480;-73
2024/03/09 10:35:59;;;;;;;20.05;9.82;;;;;;;;;;5070968;28;20349;-72
2024/03/09 10:38:28;;;;;;;20.92;10.88;;;;;;;;;;5071342;28;20381;-73
2024/03/09 10:40:58;;;;;;;17.77;10.18;;;;;;;;;;5071187;28;20419;-75
2024/03/09 10:43:25;;;;;;;17.33;10.05;;;;;;;;;;5038388;28;20490;-73
2024/03/09 10:45:57;;;;;;;23.65;9.93;;;;;;;;;;5051229;28;20103;-74
2024/03/09 10:48:26;;;;;;;19.77;9.55;;;;;;;;;;5033246;28;20484;-74
2024/03/09 10:51:18;;;;;;;18.60;9.77;;;;;;;;;;5032974;28;20389;-73
2024/03/09 10:53:47;;;;;;;;;;;;;;;;;;5035201;28;20500;-72
2024/03/09 10:56:22;;;;;;;15.70;9.40;;;;;;;;;;5070759;28;20379;-75
2024/03/09 10:58:55;;;;;;;18.25;10.85;;;;;;;;;;5071015;28;20044;-74
2024/03/09 11:01:23;;;;;;;26.85;11.18;;;;;;;;;;5064952;28;20388;-73
2024/03/09 11:03:52;;;;;;;16.80;10.00;;;;;;;;;;5033144;28;20556;-73
2024/03/09 11:06:19;;;;;;;22.60;10.40;;;;;;;;;;5030708;28;20045;-73
2024/03/09 11:08:53;;;;;;;17.92;9.50;;;;;;;;;;5050631;28;20025;-74
2024/03/09 11:11:23;;;;;;;17.58;9.55;;;;;;;;;;5033741;28;20547;-73
2024/03/09 11:13:50;;;;;;;18.48;9.88;;;;;;;;;;5031544;28;20096;-74
2024/03/09 11:16:20;;;;;;;17.58;10.00;;;;;;;;;;5030945;28;20457;-73
2024/03/09 11:18:49;;;;;;;19.00;10.00;;;;;;;;;;5032415;28;20083;-72
2024/03/09 11:21:26;;;;;;;16.65;9.25;;;;;;;;;;5030651;28;20026;-73
2024/03/09 11:23:53;;;;;;;18.55;9.88;;;;;;;;;;5030357;28;20504;-73
2024/03/09 11:26:23;;;;;;;17.65;10.05;;;;;;;;;;5030181;28;20100;-73
2024/03/09 11:28:52;;;;;;;21.40;11.27;;;;;;;;;;5030268;28;20017;-73
2024/03/09 11:31:25;;;;;;;18.92;10.70;;;;;;;;;;5062358;28;20120;-73
2024/03/09 11:33:58;;;;;;;18.83;10.23;;;;;;;;;;5030744;28;20024;-74
2024/03/09 11:36:51;;;;;;;19.38;10.27;;;;;;;;;;5062093;28;20033;-74
2024/03/09 11:39:28;;;;;;;17.33;9.68;;;;;;;;;;5028849;28;20041;-76
2024/03/09 11:41:55;;;;;;;19.20;10.77;;;;;;;;;;5045019;28;20037;-73
2024/03/09 11:44:33;;;;;;;23.27;11.20;;;;;;;;;;5061326;28;20026;-74
2024/03/09 11:47:00;;;;;;;19.58;10.32;;;;;;;;;;5029632;28;20108;-75
2024/03/09 11:49:27;;;;;;;20.17;11.13;;;;;;;;;;5029712;28;20025;-74
2024/03/09 11:51:57;;;;;;;19.83;11.10;;;;;;;;;;5029466;28;20119;-74
2024/03/09 11:54:24;;;;;;;19.67;10.98;;;;;;;;;;5035035;28;20114;-74
2024/03/09 11:56:51;;;;;;;20.75;10.95;;;;;;;;;;5049385;28;20031;-74
2024/03/09 11:59:17;;;;;;;17.33;9.80;;;;;;;;;;5049623;28;20108;-73
2024/03/09 12:01:43;;;;;;;19.98;11.25;;;;;;;;;;5048225;28;20070;-73
2024/03/09 12:04:10;;;;;;;20.90;11.20;;;;;;;;;;5049180;28;20024;-74
2024/03/09 12:06:40;;;;;;;19.52;11.60;;;;;;;;;;5065587;28;20126;-75
2024/03/09 12:09:07;;;;;;;22.88;11.48;;;;;;;;;;5051419;28;20024;-74
2024/03/09 12:11:34;;;;;;;17.83;10.20;;;;;;;;;;5050841;28;20114;-74
2024/03/09 12:14:00;;;;;;;19.00;11.23;;;;;;;;;;5051045;28;20036;-74
2024/03/09 12:16:28;;;;;;;23.83;11.27;;;;;;;;;;5050780;28;20081;-74
2024/03/09 12:18:57;;;;;;;19.55;10.80;;;;;;;;;;5050905;28;20028;-74
2024/03/09 12:21:26;;;;;;;22.58;11.40;;;;;;;;;;5084812;28;20021;-74
2024/03/09 12:23:54;;;;;;;18.92;11.38;;;;;;;;;;5084286;28;20565;-72
2024/03/09 12:26:21;;;;;;;19.80;11.38;;;;;;;;;;5050933;28;20025;-74
2024/03/09 12:28:46;;;;;;;19.02;11.88;;;;;;;;;;5068099;28;20051;-71
2024/03/09 12:31:16;;;;;;;20.65;11.13;;;;;;;;;;5050949;28;20400;-74
2024/03/09 12:33:44;;;;;;;22.75;11.30;;;;;;;;;;5069238;28;20021;-73
2024/03/09 12:36:10;;;;;;;23.23;13.35;;;;;;;;;;5051272;28;20614;-73
2024/03/09 12:38:39;;;;;;;23.17;13.10;;;;;;;;;;5050933;28;20024;-75
2024/03/09 12:41:41;;;;;;;23.13;12.43;;;;;;;;;;5069483;28;20016;-74
2024/03/09 12:44:10;;;;;;;23.45;12.68;;;;;;;;;;5007561;28;20048;-74
2024/03/09 12:46:38;;;;;;;21.75;12.93;;;;;;;;;;5029393;28;20021;-75
2024/03/09 12:49:08;;;;;;;23.58;13.73;;;;;;;;;;5028163;28;20334;-74
2024/03/09 12:51:37;;;;;;;22.98;13.38;;;;;;;;;;5010896;28;20029;-73
2024/03/09 12:54:08;;;;;;;22.33;13.45;;;;;;;;;;5038006;28;20055;-73
2024/03/09 12:56:34;;;;;;;23.02;14.82;;;;;;;;;;5050628;28;20031;-74
2024/03/09 12:59:01;;;;;;;25.42;14.10;;;;;;;;;;5069122;28;20032;-74
2024/03/09 13:01:31;;;;;;;24.50;13.20;;;;;;;;;;5050710;28;20028;-73
2024/03/09 13:04:07;;;;;;;22.90;13.38;;;;;;;;;;5067748;28;20033;-74
2024/03/09 13:06:41;;;;;;;24.33;14.65;;;;;;;;;;5052096;28;20052;-70
2024/03/09 13:09:17;;;;;;;23.85;14.15;;;;;;;;;;5072673;28;20039;-73
2024/03/09 13:11:46;;;;;;;24.52;14.43;;;;;;;;;;5072487;28;20047;-74
2024/03/09 13:14:13;;;;;;;24.25;13.90;;;;;;;;;;5054709;28;20024;-73
2024/03/09 13:16:43;;;;;;;27.60;14.48;;;;;;;;;;5054857;28;20174;-72
2024/03/09 13:19:09;;;;;;;20.25;13.77;;;;;;;;;;5072902;28;20031;-74
2024/03/09 13:21:37;;;;;;;24.25;14.60;;;;;;;;;;5054659;28;20021;-73
2024/03/09 13:24:09;;;;;;;21.00;14.50;;;;;;;;;;5073208;28;20020;-74
2024/03/09 13:26:35;;;;;;;23.42;15.75;;;;;;;;;;5072341;28;20024;-75
2024/03/09 13:29:03;;;;;;;25.27;15.93;;;;;;;;;;5054653;28;20021;-74
2024/03/09 13:31:33;;;;;;;24.88;14.82;;;;;;;;;;5054311;28;20031;-72
2024/03/09 13:34:02;;;;;;;34.22;16.58;;;;;;;;;;5054361;28;20024;-74
2024/03/09 13:36:28;;;;;;;46.22;22.13;;;;;;;;;;5072464;28;20108;-72
2024/03/09 13:38:53;;;;;;;26.35;16.30;;;;;;;;;;5072723;28;20101;-75
2024/03/09 13:41:19;;;;;;;24.63;14.88;;;;;;;;;;5073673;28;20100;-73
2024/03/09 13:43:46;;;;;;;27.40;14.82;;;;;;;;;;5056974;28;20112;-73
2024/03/09 13:46:13;;;;;;;29.77;15.77;;;;;;;;;;5054573;28;20036;-74
2024/03/09 13:48:40;;;;;;;32.30;17.13;;;;;;;;;;5035314;28;20480;-73
2024/03/09 13:51:13;;;;;;;19.55;14.27;;;;;;;;;;5052359;28;20021;-72
2024/03/09 13:53:42;;;;;;;23.08;14.25;;;;;;;;;;5035480;28;20064;-73
2024/03/09 13:56:19;;;;;;;32.53;16.98;;;;;;;;;;5090221;28;20024;-74
2024/03/09 13:58:46;;;;;;;27.88;16.50;;;;;;;;;;5061035;28;20064;-73
2024/03/09 14:01:19;;;;;;;29.08;16.77;;;;;;;;;;5058384;28;20027;-74
2024/03/09 14:03:47;;;;;;;25.77;16.38;;;;;;;;;;5053987;28;20086;-75
2024/03/09 14:06:19;;;;;;;24.42;16.25;;;;;;;;;;5071244;28;20053;-75
2024/03/09 14:08:59;;;;;;;27.83;15.68;;;;;;;;;;5069334;28;20111;-76
2024/03/09 14:11:28;;;;;;;25.08;16.42;;;;;;;;;;5071672;28;20051;-74
2024/03/09 14:13:54;;;;;;;29.98;16.13;;;;;;;;;;5053485;28;20361;-72
2024/03/09 14:16:21;;;;;;;25.50;16.02;;;;;;;;;;5070805;28;20056;-74
2024/03/09 14:18:49;;;;;;;30.98;16.60;;;;;;;;;;5052387;28;20094;-74
2024/03/09 14:21:18;;;;;;;28.40;17.42;;;;;;;;;;5071589;28;20024;-74
2024/03/09 14:23:46;;;;;;;28.75;18.05;;;;;;;;;;5053793;28;20116;-74
2024/03/09 14:26:13;;;;;;;27.38;16.25;;;;;;;;;;5059461;28;20096;-73
2024/03/09 14:28:39;;;;;;;26.05;16.80;;;;;;;;;;5057982;28;20056;-71
2024/03/09 14:31:08;;;;;;;39.47;22.33;;;;;;;;;;5074961;28;20031;-73